Time;durP1;ratioP1;P1;durP2;ratioP2;P2;SDS_P1;SDS_P2;PMS_P1;PMS_P2;Temp;Humidity;BMP_temperature;BMP_pressure;BME280_temperature;BME280_humidity;BME280_pressure;Samples;Min_cycle;Max_cycle;Signal;HPM_P1;HPM_P2
2023/05/03 00:01:40;;;;;;;8.95;2.70;;;7.20;99.90;;;;;;5073013;28;20230;-51
2023/05/03 00:04:06;;;;;;;7.35;3.10;;;7.10;99.90;;;;;;5072817;28;20384;-47
2023/05/03 00:06:31;;;;;;;5.78;2.72;;;7.20;99.90;;;;;;5072663;28;20035;-54
2023/05/03 00:08:57;;;;;;;4.65;2.80;;;7.10;99.90;;;;;;5059668;28;20037;-47
2023/05/03 00:11:23;;;;;;;8.65;2.90;;;7.10;99.90;;;;;;5071891;28;20051;-51
2023/05/03 00:13:48;;;;;;;7.40;3.08;;;7.10;99.90;;;;;;5072858;28;20024;-54
2023/05/03 00:16:14;;;;;;;8.05;3.25;;;7.10;99.90;;;;;;5072646;28;20376;-51
2023/05/03 00:18:39;;;;;;;9.23;3.78;;;7.10;99.90;;;;;;5072428;28;20027;-52
2023/05/03 00:21:05;;;;;;;9.93;3.40;;;7.00;99.90;;;;;;5072518;28;20041;-48
2023/05/03 00:23:31;;;;;;;11.77;3.58;;;7.00;99.90;;;;;;5054569;28;20035;-48
2023/05/03 00:25:57;;;;;;;7.10;2.85;;;7.00;99.90;;;;;;5072828;28;20123;-46
2023/05/03 00:28:24;;;;;;;7.40;3.25;;;7.00;99.90;;;;;;5072107;28;20430;-47
2023/05/03 00:30:50;;;;;;;7.00;3.30;;;7.00;99.90;;;;;;5072610;28;20037;-46
2023/05/03 00:33:16;;;;;;;8.60;3.55;;;7.00;99.90;;;;;;5072284;28;20231;-53
2023/05/03 00:35:42;;;;;;;9.38;3.50;;;7.00;99.90;;;;;;5072285;28;20035;-56
2023/05/03 00:38:08;;;;;;;10.30;3.53;;;6.90;99.90;;;;;;5072234;28;20082;-54
2023/05/03 00:40:33;;;;;;;7.57;3.42;;;6.90;99.90;;;;;;5072285;28;20107;-58
2023/05/03 00:42:59;;;;;;;9.57;3.20;;;6.80;99.90;;;;;;5071383;28;20455;-47
2023/05/03 00:45:25;;;;;;;6.80;3.55;;;6.80;99.90;;;;;;5072055;28;20082;-52
2023/05/03 00:47:51;;;;;;;6.93;3.40;;;6.80;99.90;;;;;;5070537;28;20025;-50
2023/05/03 00:50:17;;;;;;;6.97;3.15;;;6.80;99.90;;;;;;5071819;28;20093;-56
2023/05/03 00:52:44;;;;;;;8.80;3.58;;;6.80;99.90;;;;;;5072019;28;20036;-51
2023/05/03 00:55:10;;;;;;;14.05;3.72;;;6.80;99.90;;;;;;5072033;28;20032;-57
2023/05/03 00:57:36;;;;;;;7.55;3.20;;;6.80;99.90;;;;;;5071799;28;20032;-53
2023/05/03 01:00:02;;;;;;;7.90;3.58;;;6.70;99.90;;;;;;5071745;28;20101;-55
2023/05/03 01:02:28;;;;;;;6.45;3.55;;;6.70;99.90;;;;;;5071708;28;20074;-57
2023/05/03 01:04:54;;;;;;;5.85;3.45;;;6.70;99.90;;;;;;5071654;28;20036;-52
2023/05/03 01:07:34;;;;;;;11.30;3.20;;;6.60;99.90;;;;;;5071341;28;20426;-52
2023/05/03 01:10:02;;;;;;;6.97;3.35;;;6.60;99.90;;;;;;5071773;28;20031;-54
2023/05/03 01:13:02;;;;;;;11.07;4.28;;;6.60;99.90;;;;;;5071519;28;20541;-54
2023/05/03 01:15:57;;;;;;;11.18;4.15;;;6.60;99.90;;;;;;5071567;28;20024;-49
2023/05/03 01:18:29;;;;;;;7.57;3.50;;;6.50;99.90;;;;;;5071332;28;20037;-51
2023/05/03 01:20:58;;;;;;;8.93;3.50;;;6.50;99.90;;;;;;5071600;28;20017;-54
2023/05/03 01:23:35;;;;;;;9.02;3.50;;;6.50;99.90;;;;;;5071241;28;20023;-47
2023/05/03 01:26:16;;;;;;;8.43;4.07;;;6.50;99.90;;;;;;5071727;28;20021;-54
2023/05/03 01:28:42;;;;;;;8.90;3.95;;;6.50;99.90;;;;;;5071327;28;20036;-55
2023/05/03 01:31:09;;;;;;;6.95;3.67;;;6.40;99.90;;;;;;5071588;28;20028;-52
2023/05/03 01:33:55;;;;;;;9.23;3.50;;;6.40;99.90;;;;;;5069928;28;20399;-52
2023/05/03 01:36:31;;;;;;;10.77;4.05;;;6.40;99.90;;;;;;5071365;28;20032;-56
2023/05/03 01:38:59;;;;;;;9.20;4.55;;;6.30;99.90;;;;;;5071188;28;20027;-52
2023/05/03 01:41:26;;;;;;;8.95;3.75;;;6.30;99.90;;;;;;5071294;28;20107;-58
2023/05/03 01:43:55;;;;;;;10.90;3.83;;;6.30;99.90;;;;;;5070918;28;20041;-54
2023/05/03 01:46:21;;;;;;;6.95;3.80;;;6.30;99.90;;;;;;5071181;28;20028;-58
2023/05/03 01:48:47;;;;;;;7.93;3.80;;;6.30;99.90;;;;;;5070718;28;20028;-56
2023/05/03 01:51:13;;;;;;;12.75;4.80;;;6.30;99.90;;;;;;5071326;28;20028;-50
2023/05/03 01:53:40;;;;;;;8.57;3.45;;;6.40;99.90;;;;;;5070890;28;20107;-46
2023/05/03 01:56:07;;;;;;;9.68;4.43;;;6.40;99.90;;;;;;5070997;28;20025;-46
2023/05/03 01:58:33;;;;;;;11.20;3.63;;;6.30;99.90;;;;;;5070546;28;20037;-53
2023/05/03 02:00:58;;;;;;;8.68;4.03;;;6.40;99.90;;;;;;5070763;28;20040;-54
2023/05/03 02:03:24;;;;;;;11.95;4.18;;;6.40;99.90;;;;;;5070855;28;20020;-46
2023/05/03 02:05:49;;;;;;;7.90;3.45;;;6.40;99.90;;;;;;5070715;28;20065;-53
2023/05/03 02:08:15;;;;;;;9.93;4.07;;;6.50;99.90;;;;;;5063336;28;20044;-53
2023/05/03 02:10:43;;;;;;;7.82;3.92;;;6.40;99.90;;;;;;5064237;28;20369;-51
2023/05/03 02:13:08;;;;;;;10.05;4.38;;;6.40;99.90;;;;;;5070736;28;20044;-53
2023/05/03 02:15:34;;;;;;;11.75;4.47;;;6.40;99.90;;;;;;5070920;28;20158;-50
2023/05/03 02:18:01;;;;;;;8.30;3.83;;;6.40;99.90;;;;;;5069124;28;20028;-54
2023/05/03 02:20:27;;;;;;;15.45;3.75;;;6.40;99.90;;;;;;5070767;28;20424;-50
2023/05/03 02:22:52;;;;;;;11.07;4.03;;;6.40;99.90;;;;;;5070615;28;20029;-55
2023/05/03 02:25:18;;;;;;;10.10;4.32;;;6.40;99.90;;;;;;5070355;28;20043;-56
2023/05/03 02:27:44;;;;;;;14.00;4.57;;;6.40;99.90;;;;;;5070763;28;20048;-55
2023/05/03 02:30:09;;;;;;;11.25;3.83;;;6.40;99.90;;;;;;5070176;28;20025;-55
2023/05/03 02:32:35;;;;;;;12.50;4.15;;;6.50;99.90;;;;;;5070524;28;20104;-56
2023/05/03 02:35:01;;;;;;;6.97;3.90;;;6.50;99.90;;;;;;5070478;28;20028;-54
2023/05/03 02:37:27;;;;;;;11.90;4.05;;;6.50;99.90;;;;;;5070746;28;20402;-52
2023/05/03 02:39:52;;;;;;;12.18;3.78;;;6.50;99.90;;;;;;5069071;28;20456;-60
2023/05/03 02:42:18;;;;;;;12.35;3.85;;;6.50;99.90;;;;;;5070463;28;20036;-48
2023/05/03 02:44:45;;;;;;;10.23;4.10;;;6.50;99.90;;;;;;5070265;28;20060;-52
2023/05/03 02:47:14;;;;;;;12.48;4.18;;;6.40;99.90;;;;;;5059823;28;20384;-57
2023/05/03 02:49:39;;;;;;;11.97;4.63;;;6.40;99.90;;;;;;5050609;28;20057;-57
2023/05/03 02:52:05;;;;;;;11.85;3.95;;;6.50;99.90;;;;;;5053632;28;20063;-52
2023/05/03 02:54:30;;;;;;;8.27;4.15;;;6.50;99.90;;;;;;5070032;28;20081;-53
2023/05/03 02:56:56;;;;;;;12.60;4.10;;;6.40;99.90;;;;;;5056158;28;20024;-56
2023/05/03 02:59:22;;;;;;;10.30;4.00;;;6.40;99.90;;;;;;5070174;28;20399;-52
2023/05/03 03:01:48;;;;;;;11.70;3.83;;;6.50;99.90;;;;;;5070208;28;20025;-57
2023/05/03 03:04:14;;;;;;;7.95;3.85;;;6.40;99.90;;;;;;5061959;28;20155;-52
2023/05/03 03:06:40;;;;;;;7.63;4.25;;;6.30;99.90;;;;;;5068730;28;20063;-49
2023/05/03 03:09:06;;;;;;;8.52;4.13;;;6.30;99.90;;;;;;5073674;28;20516;-51
2023/05/03 03:11:32;;;;;;;6.75;3.90;;;6.30;99.90;;;;;;5073660;28;20108;-51
2023/05/03 03:13:57;;;;;;;7.15;3.88;;;6.30;99.90;;;;;;5073684;28;20027;-54
2023/05/03 03:16:23;;;;;;;11.73;4.50;;;6.30;99.90;;;;;;5073639;28;20028;-55
2023/05/03 03:18:49;;;;;;;12.73;4.10;;;6.20;99.90;;;;;;5073776;28;20110;-53
2023/05/03 03:21:14;;;;;;;10.65;4.30;;;6.20;99.90;;;;;;5068753;28;20082;-58
2023/05/03 03:23:40;;;;;;;9.52;4.45;;;6.20;99.90;;;;;;5073745;28;20044;-53
2023/05/03 03:26:05;;;;;;;10.38;4.03;;;6.20;99.90;;;;;;5073734;28;20021;-51
2023/05/03 03:28:31;;;;;;;9.88;4.38;;;6.20;99.90;;;;;;5073361;28;20029;-54
2023/05/03 03:30:57;;;;;;;15.07;3.97;;;6.20;99.90;;;;;;5073308;28;20438;-52
2023/05/03 03:33:24;;;;;;;9.38;4.32;;;6.20;99.90;;;;;;5073444;28;20032;-53
2023/05/03 03:35:49;;;;;;;10.85;4.47;;;6.20;99.90;;;;;;5073339;28;20021;-48
2023/05/03 03:38:15;;;;;;;16.17;5.10;;;6.10;99.90;;;;;;5073250;28;20078;-50
2023/05/03 03:40:41;;;;;;;10.13;4.32;;;6.10;99.90;;;;;;5073425;28;20064;-52
2023/05/03 03:43:06;;;;;;;10.00;5.05;;;6.10;99.90;;;;;;5072883;28;20399;-53
2023/05/03 03:45:32;;;;;;;9.02;4.72;;;6.10;99.90;;;;;;5073181;28;20044;-56
2023/05/03 03:47:57;;;;;;;11.85;4.45;;;6.10;99.90;;;;;;5073181;28;20024;-48
2023/05/03 03:50:26;;;;;;;12.05;5.25;;;6.10;99.90;;;;;;5073269;28;20023;-49
2023/05/03 03:52:52;;;;;;;11.35;4.85;;;6.10;99.90;;;;;;5072926;28;20025;-47
2023/05/03 03:55:17;;;;;;;10.35;4.90;;;6.10;99.90;;;;;;5065992;28;20032;-48
2023/05/03 03:57:43;;;;;;;10.63;4.60;;;6.10;99.90;;;;;;5068240;28;20036;-49
2023/05/03 04:00:10;;;;;;;7.82;4.78;;;6.10;99.90;;;;;;5073322;28;20021;-51
2023/05/03 04:02:35;;;;;;;13.00;4.88;;;6.10;99.90;;;;;;5073200;28;20368;-50
2023/05/03 04:05:01;;;;;;;12.48;4.97;;;6.10;99.90;;;;;;5072725;28;20043;-55
2023/05/03 04:07:26;;;;;;;12.10;4.60;;;6.10;99.90;;;;;;5073001;28;20088;-52
2023/05/03 04:09:52;;;;;;;11.68;5.10;;;6.10;99.90;;;;;;5072691;28;20028;-61
2023/05/03 04:12:18;;;;;;;10.10;4.75;;;6.10;99.90;;;;;;5072624;28;20020;-48
2023/05/03 04:14:43;;;;;;;7.55;4.28;;;6.10;99.90;;;;;;5072921;28;20025;-59
2023/05/03 04:17:09;;;;;;;10.18;4.47;;;6.10;99.90;;;;;;5071421;28;20016;-54
2023/05/03 04:19:37;;;;;;;13.00;4.75;;;6.10;99.90;;;;;;5072830;28;20052;-55
2023/05/03 04:22:03;;;;;;;11.68;4.90;;;6.10;99.90;;;;;;5072276;28;20036;-55
2023/05/03 04:24:29;;;;;;;10.13;4.63;;;6.10;99.90;;;;;;5072529;28;20029;-55
2023/05/03 04:26:55;;;;;;;11.07;4.60;;;6.10;99.90;;;;;;5072367;28;20023;-50
2023/05/03 04:29:21;;;;;;;10.73;4.65;;;6.10;99.90;;;;;;5072709;28;20021;-54
2023/05/03 04:31:47;;;;;;;10.80;5.18;;;6.10;99.90;;;;;;5072371;28;20032;-54
2023/05/03 04:34:15;;;;;;;9.15;4.35;;;6.20;99.90;;;;;;5072038;28;20387;-47
2023/05/03 04:36:41;;;;;;;12.60;4.85;;;6.20;99.90;;;;;;5072389;28;20024;-53
2023/05/03 04:39:10;;;;;;;9.32;5.18;;;6.10;99.90;;;;;;5072111;28;20402;-47
2023/05/03 04:41:35;;;;;;;9.23;4.65;;;6.10;99.90;;;;;;5071773;28;20551;-53
2023/05/03 04:44:01;;;;;;;12.68;4.55;;;6.10;99.90;;;;;;5071877;28;20128;-57
2023/05/03 04:46:27;;;;;;;9.43;3.97;;;6.10;99.90;;;;;;5072196;28;20074;-52
2023/05/03 04:48:52;;;;;;;9.43;5.32;;;6.10;99.90;;;;;;5070562;28;20364;-56
2023/05/03 04:51:18;;;;;;;8.75;4.55;;;6.10;99.90;;;;;;5071840;28;20028;-49
2023/05/03 04:53:43;;;;;;;11.68;4.68;;;6.20;99.90;;;;;;5071928;28;20103;-51
2023/05/03 04:56:09;;;;;;;11.15;5.45;;;6.20;99.90;;;;;;5057618;28;20163;-50
2023/05/03 04:58:35;;;;;;;10.93;4.57;;;6.20;99.90;;;;;;5071894;28;20034;-51
2023/05/03 05:01:02;;;;;;;15.68;4.95;;;6.30;99.90;;;;;;5070496;28;20115;-52
2023/05/03 05:03:30;;;;;;;14.48;5.15;;;6.30;99.90;;;;;;5071422;28;20095;-57
2023/05/03 05:05:55;;;;;;;10.07;4.20;;;6.30;99.90;;;;;;5071581;28;20490;-56
2023/05/03 05:08:21;;;;;;;9.32;4.57;;;6.30;99.90;;;;;;5071485;28;20106;-46
2023/05/03 05:10:47;;;;;;;13.55;4.70;;;6.40;99.90;;;;;;5071481;28;20181;-54
2023/05/03 05:13:12;;;;;;;8.98;4.68;;;6.40;99.90;;;;;;5071250;28;20070;-45
2023/05/03 05:15:38;;;;;;;8.80;4.13;;;6.40;99.90;;;;;;5071534;28;20070;-46
2023/05/03 05:18:04;;;;;;;8.07;4.63;;;6.40;99.90;;;;;;5070034;28;20372;-45
2023/05/03 05:20:30;;;;;;;12.25;4.50;;;6.50;99.90;;;;;;5071305;28;20033;-45
2023/05/03 05:22:56;;;;;;;10.40;4.75;;;6.50;99.90;;;;;;5071269;28;20028;-45
2023/05/03 05:25:21;;;;;;;12.27;4.22;;;6.60;99.90;;;;;;5071060;28;20034;-47
2023/05/03 05:27:47;;;;;;;9.75;4.18;;;6.70;99.90;;;;;;5071227;28;20039;-56
2023/05/03 05:30:13;;;;;;;9.68;4.38;;;6.80;99.90;;;;;;5071029;28;20064;-52
2023/05/03 05:32:38;;;;;;;9.60;4.50;;;6.90;99.90;;;;;;5071144;28;20483;-58
2023/05/03 05:35:04;;;;;;;12.48;4.00;;;7.00;99.90;;;;;;5071140;28;20083;-46
2023/05/03 05:37:30;;;;;;;15.45;4.35;;;7.00;99.90;;;;;;5070987;28;20081;-53
2023/05/03 05:39:56;;;;;;;8.20;4.10;;;7.10;99.90;;;;;;5071062;28;20024;-46
2023/05/03 05:42:22;;;;;;;9.20;4.28;;;7.20;99.90;;;;;;5070658;28;20185;-55
2023/05/03 05:44:47;;;;;;;8.65;4.22;;;7.30;99.90;;;;;;5071044;28;20391;-48
2023/05/03 05:47:13;;;;;;;10.73;4.95;;;7.40;99.90;;;;;;5070879;28;20028;-50
2023/05/03 05:49:39;;;;;;;10.88;4.43;;;7.50;99.90;;;;;;5070732;28;20024;-51
2023/05/03 05:52:04;;;;;;;6.95;4.00;;;7.60;99.90;;;;;;5070801;28;20103;-51
2023/05/03 05:54:30;;;;;;;11.05;4.15;;;7.80;99.90;;;;;;5069916;28;20395;-52
2023/05/03 05:56:56;;;;;;;11.13;4.65;;;7.90;99.90;;;;;;5057523;28;20058;-49
2023/05/03 05:59:22;;;;;;;10.90;4.28;;;8.30;99.90;;;;;;5071109;28;20021;-49
2023/05/03 06:01:48;;;;;;;12.88;4.57;;;9.00;99.90;;;;;;5070386;28;20029;-49
2023/05/03 06:04:14;;;;;;;6.70;3.72;;;9.80;99.90;;;;;;5070658;28;20043;-52
2023/05/03 06:06:41;;;;;;;9.20;3.67;;;10.40;99.90;;;;;;5070647;28;20115;-46
2023/05/03 06:09:07;;;;;;;9.98;3.75;;;10.80;99.90;;;;;;5070604;28;20369;-47
2023/05/03 06:11:34;;;;;;;14.73;4.30;;;11.00;99.90;;;;;;5070393;28;20017;-50
2023/05/03 06:14:02;;;;;;;10.38;3.90;;;11.50;99.90;;;;;;5070827;28;20033;-46
2023/05/03 06:16:28;;;;;;;8.32;2.85;;;12.50;99.90;;;;;;5070658;28;20029;-46
2023/05/03 06:18:54;;;;;;;9.38;3.70;;;13.20;99.90;;;;;;5069329;28;20031;-46
2023/05/03 06:21:20;;;;;;;9.05;3.85;;;14.30;99.90;;;;;;5070461;28;20039;-46
2023/05/03 06:23:46;;;;;;;11.27;4.28;;;15.20;99.90;;;;;;5068186;28;20650;-46
2023/05/03 06:26:12;;;;;;;8.70;4.20;;;16.20;99.90;;;;;;5070647;28;20121;-50
2023/05/03 06:28:37;;;;;;;9.27;3.75;;;16.90;97.40;;;;;;5070337;28;20033;-48
2023/05/03 06:31:03;;;;;;;9.82;4.20;;;17.20;93.60;;;;;;5070579;28;20029;-54
2023/05/03 06:33:29;;;;;;;10.68;4.30;;;17.80;89.40;;;;;;5070181;28;20021;-50
2023/05/03 06:35:55;;;;;;;11.30;5.10;;;18.10;88.50;;;;;;5070359;28;20025;-47
2023/05/03 06:38:21;;;;;;;8.10;4.30;;;18.30;86.10;;;;;;5070367;28;20404;-55
2023/05/03 06:40:47;;;;;;;10.43;4.00;;;19.20;86.90;;;;;;5073303;28;20102;-48
2023/05/03 06:43:13;;;;;;;9.00;5.03;;;19.90;81.10;;;;;;5072890;28;20499;-49
2023/05/03 06:45:40;;;;;;;11.80;5.53;;;21.00;74.00;;;;;;5074389;28;20051;-55
2023/05/03 06:48:06;;;;;;;13.75;5.85;;;20.30;72.50;;;;;;5074561;28;20021;-58
2023/05/03 06:50:32;;;;;;;13.00;6.57;;;19.80;69.90;;;;;;5074146;28;20107;-53
2023/05/03 06:52:57;;;;;;;10.80;6.30;;;20.10;72.00;;;;;;5074014;28;20388;-58
2023/05/03 06:55:23;;;;;;;11.75;5.85;;;19.80;69.00;;;;;;5066374;28;20098;-50
2023/05/03 06:57:51;;;;;;;13.60;6.88;;;20.00;73.40;;;;;;5068345;28;20025;-48
2023/05/03 07:00:17;;;;;;;10.68;5.75;;;19.70;70.00;;;;;;5074175;28;20023;-54
2023/05/03 07:02:43;;;;;;;13.18;7.28;;;20.60;72.00;;;;;;5073854;28;20025;-52
2023/05/03 07:05:09;;;;;;;14.35;7.57;;;21.30;64.40;;;;;;5073860;28;20082;-57
2023/05/03 07:07:35;;;;;;;12.93;6.97;;;20.90;65.20;;;;;;5074037;28;20029;-53
2023/05/03 07:10:01;;;;;;;12.55;6.88;;;20.90;66.40;;;;;;5072488;28;20120;-51
2023/05/03 07:12:27;;;;;;;12.98;7.30;;;20.80;65.30;;;;;;5073753;28;20024;-54
2023/05/03 07:14:56;;;;;;;13.32;6.97;;;20.90;64.30;;;;;;5073669;28;20060;-55
2023/05/03 07:17:22;;;;;;;;;;;21.20;64.30;;;;;;5074410;28;20019;-53
2023/05/03 07:19:48;;;;;;;16.25;8.00;;;20.80;65.50;;;;;;5073818;28;19904;-56
2023/05/03 07:22:14;;;;;;;13.73;7.55;;;20.60;64.40;;;;;;5072769;28;20024;-49
2023/05/03 07:24:40;;;;;;;14.27;8.10;;;20.40;65.10;;;;;;5052764;28;20043;-47
2023/05/03 07:27:05;;;;;;;15.10;8.23;;;20.40;65.10;;;;;;5053322;28;20028;-46
2023/05/03 07:29:31;;;;;;;12.50;7.18;;;20.80;65.80;;;;;;5053429;28;20040;-53
2023/05/03 07:31:57;;;;;;;14.18;8.50;;;21.60;64.50;;;;;;5056218;28;20427;-49
2023/05/03 07:34:24;;;;;;;16.65;7.38;;;21.90;60.90;;;;;;5055765;28;20024;-50
2023/05/03 07:36:50;;;;;;;14.35;8.23;;;22.50;64.40;;;;;;5085465;28;20083;-51
2023/05/03 07:39:16;;;;;;;16.38;8.48;;;22.40;60.20;;;;;;5053279;28;20029;-56
2023/05/03 07:41:42;;;;;;;17.52;8.52;;;22.90;58.40;;;;;;5054771;28;20029;-51
2023/05/03 07:44:08;;;;;;;15.18;7.97;;;23.10;57.00;;;;;;5064146;28;20370;-47
2023/05/03 07:46:34;;;;;;;14.38;8.55;;;22.90;57.90;;;;;;5070735;28;20028;-51
2023/05/03 07:49:00;;;;;;;13.57;7.95;;;23.30;57.20;;;;;;5073394;28;20029;-50
2023/05/03 07:51:27;;;;;;;12.77;7.47;;;23.80;58.20;;;;;;5067004;28;20496;-46
2023/05/03 07:53:54;;;;;;;12.43;6.80;;;24.40;58.30;;;;;;5062032;28;20434;-51
2023/05/03 07:56:20;;;;;;;14.68;8.23;;;24.50;57.30;;;;;;5065807;28;20029;-51
2023/05/03 07:58:46;;;;;;;14.75;7.75;;;24.00;53.50;;;;;;5071455;28;20085;-46
2023/05/03 08:01:11;;;;;;;13.18;6.90;;;22.90;54.60;;;;;;5071756;28;20025;-54
2023/05/03 08:03:37;;;;;;;14.43;7.40;;;23.30;58.20;;;;;;5069043;28;20029;-50
2023/05/03 08:06:03;;;;;;;11.77;6.95;;;23.10;53.90;;;;;;5072469;28;20028;-52
2023/05/03 08:08:30;;;;;;;11.18;6.68;;;23.30;56.20;;;;;;5064305;28;20028;-52
2023/05/03 08:10:56;;;;;;;12.85;7.38;;;23.90;54.20;;;;;;5062586;28;20028;-47
2023/05/03 08:13:22;;;;;;;15.90;7.63;;;24.20;53.50;;;;;;5052781;28;20204;-55
2023/05/03 08:15:48;;;;;;;10.32;6.82;;;25.00;53.20;;;;;;5052494;28;20125;-52
2023/05/03 08:18:14;;;;;;;12.35;6.88;;;25.30;50.30;;;;;;5053277;28;20063;-50
2023/05/03 08:20:41;;;;;;;12.98;6.40;;;24.90;50.40;;;;;;5052523;28;20454;-47
2023/05/03 08:23:06;;;;;;;14.07;7.07;;;25.30;52.60;;;;;;5052580;28;20052;-57
2023/05/03 08:25:33;;;;;;;12.15;6.90;;;25.80;52.40;;;;;;5059152;28;20137;-51
2023/05/03 08:27:58;;;;;;;15.93;7.40;;;26.00;48.30;;;;;;5052617;28;20052;-55
2023/05/03 08:30:25;;;;;;;15.48;7.03;;;25.50;50.00;;;;;;5059943;28;20416;-49
2023/05/03 08:32:51;;;;;;;14.98;6.63;;;25.50;49.30;;;;;;5051053;28;20505;-45
2023/05/03 08:35:16;;;;;;;12.60;6.85;;;25.60;50.00;;;;;;5052171;28;20041;-50
2023/05/03 08:37:44;;;;;;;12.85;6.72;;;24.50;49.60;;;;;;5052436;28;20021;-46
2023/05/03 08:40:12;;;;;;;13.30;6.53;;;24.40;50.30;;;;;;5052231;28;20104;-45
2023/05/03 08:42:43;;;;;;;13.25;6.43;;;24.10;50.30;;;;;;5055251;28;20068;-45
2023/05/03 08:45:14;;;;;;;11.85;6.95;;;24.00;53.40;;;;;;5052959;28;20033;-49
2023/05/03 08:47:40;;;;;;;11.10;6.55;;;25.00;51.90;;;;;;5052118;28;20029;-51
2023/05/03 08:50:08;;;;;;;12.82;6.57;;;25.60;50.10;;;;;;5051963;28;20029;-46
2023/05/03 08:52:34;;;;;;;10.07;5.60;;;26.10;48.50;;;;;;5052138;28;20075;-52
2023/05/03 08:55:00;;;;;;;13.23;6.30;;;27.10;47.70;;;;;;5052053;28;20025;-47
2023/05/03 08:57:27;;;;;;;12.73;6.70;;;26.40;45.40;;;;;;5062739;28;20021;-49
2023/05/03 08:59:57;;;;;;;10.13;6.80;;;25.40;46.20;;;;;;5071719;28;20487;-49
2023/05/03 09:02:23;;;;;;;13.77;6.70;;;25.50;46.30;;;;;;5071381;28;20056;-50
2023/05/03 09:04:48;;;;;;;12.90;6.80;;;25.70;47.30;;;;;;5071376;28;20064;-50
2023/05/03 09:07:15;;;;;;;11.48;6.45;;;25.70;45.90;;;;;;5071970;28;20029;-48
2023/05/03 09:09:42;;;;;;;12.50;6.32;;;26.00;44.40;;;;;;5071563;28;20183;-51
2023/05/03 09:12:08;;;;;;;8.65;5.50;;;26.40;46.30;;;;;;5071531;28;20016;-48
2023/05/03 09:14:44;;;;;;;9.50;5.25;;;27.60;47.40;;;;;;5071214;28;20027;-46
2023/05/03 09:17:20;;;;;;;9.52;5.05;;;27.90;46.80;;;;;;5068170;28;20046;-44
2023/05/03 09:19:53;;;;;;;9.55;5.40;;;28.20;42.00;;;;;;5055622;28;20025;-46
2023/05/03 09:22:21;;;;;;;9.65;5.60;;;27.00;42.90;;;;;;5051212;28;20021;-56
2023/05/03 09:24:52;;;;;;;10.10;5.27;;;26.50;43.30;;;;;;5051218;28;20071;-46
2023/05/03 09:27:22;;;;;;;11.50;5.85;;;27.10;44.00;;;;;;5051816;28;20488;-51
2023/05/03 09:29:48;;;;;;;10.85;5.88;;;27.20;41.50;;;;;;5051403;28;20032;-53
2023/05/03 09:32:13;;;;;;;12.45;6.18;;;25.80;42.80;;;;;;5067034;28;20021;-55
2023/05/03 09:34:39;;;;;;;11.23;6.10;;;25.10;43.90;;;;;;5068258;28;20031;-56
2023/05/03 09:37:05;;;;;;;10.95;5.90;;;25.10;45.90;;;;;;5059686;28;20500;-51
2023/05/03 09:39:31;;;;;;;12.15;6.72;;;24.90;42.40;;;;;;5050910;28;20033;-53
2023/05/03 09:41:57;;;;;;;11.13;5.88;;;24.60;43.80;;;;;;5050937;28;20813;-50
2023/05/03 09:44:40;;;;;;;10.93;5.80;;;24.80;43.60;;;;;;5054332;28;20043;-44
2023/05/03 09:47:07;;;;;;;10.68;6.60;;;25.30;45.50;;;;;;5054940;28;20029;-55
2023/05/03 09:49:33;;;;;;;9.98;6.50;;;25.20;43.20;;;;;;5059491;28;20032;-54
2023/05/03 09:52:00;;;;;;;11.20;6.93;;;25.60;43.90;;;;;;5060430;28;20020;-53
2023/05/03 09:54:27;;;;;;;14.50;7.25;;;24.90;44.50;;;;;;5065384;28;20013;-52
2023/05/03 09:56:54;;;;;;;9.52;6.40;;;23.00;45.10;;;;;;5057295;28;20027;-51
2023/05/03 09:59:20;;;;;;;12.23;6.32;;;24.60;49.10;;;;;;5070535;28;20556;-47
2023/05/03 10:01:46;;;;;;;10.45;6.47;;;24.40;47.70;;;;;;5071063;28;20071;-55
2023/05/03 10:04:16;;;;;;;11.98;7.10;;;25.00;44.80;;;;;;5070662;28;20035;-46
2023/05/03 10:06:45;;;;;;;13.98;6.93;;;24.60;43.90;;;;;;5070116;28;20035;-45
2023/05/03 10:09:15;;;;;;;;;;;25.30;46.30;;;;;;5061748;28;20463;-52
2023/05/03 10:11:50;;;;;;;9.73;6.30;;;26.40;47.90;;;;;;5055031;28;19908;-48
2023/05/03 10:14:16;;;;;;;10.00;6.28;;;27.20;46.10;;;;;;5053398;28;20123;-53
2023/05/03 10:16:46;;;;;;;12.30;6.43;;;26.60;41.80;;;;;;5060192;28;20107;-52
2023/05/03 10:19:26;;;;;;;13.57;6.53;;;25.90;46.70;;;;;;5050493;28;20480;-49
2023/05/03 10:22:05;;;;;;;11.45;6.38;;;25.10;42.80;;;;;;5056506;28;20495;-54
2023/05/03 10:24:32;;;;;;;10.90;5.90;;;25.40;47.70;;;;;;5059869;28;20032;-48
2023/05/03 10:26:58;;;;;;;11.15;6.88;;;26.40;47.10;;;;;;5058267;28;20032;-48
2023/05/03 10:29:36;;;;;;;10.30;6.50;;;24.90;44.20;;;;;;5056473;28;20029;-52
2023/05/03 10:32:25;;;;;;;9.07;6.05;;;26.00;50.70;;;;;;5053511;28;20116;-52
2023/05/03 10:35:09;;;;;;;11.13;6.40;;;25.60;44.80;;;;;;5050309;28;20150;-51
2023/05/03 10:37:35;;;;;;;9.38;5.85;;;24.80;45.00;;;;;;5050379;28;20021;-53
2023/05/03 10:40:15;;;;;;;12.38;6.35;;;25.70;46.60;;;;;;5050242;28;20037;-53
2023/05/03 10:42:51;;;;;;;11.05;6.55;;;26.50;45.30;;;;;;5053957;28;20040;-54
2023/05/03 10:45:35;;;;;;;11.77;6.35;;;26.00;42.70;;;;;;5069168;28;20113;-49
2023/05/03 10:48:10;;;;;;;13.00;6.72;;;26.10;42.90;;;;;;5050706;28;20061;-55
2023/05/03 10:50:36;;;;;;;12.60;7.65;;;25.00;40.40;;;;;;5053799;28;20065;-52
2023/05/03 10:53:01;;;;;;;13.35;7.10;;;25.10;41.20;;;;;;5055091;28;20052;-50
2023/05/03 10:55:27;;;;;;;11.35;6.43;;;26.10;43.80;;;;;;5059717;28;20036;-50
2023/05/03 10:57:57;;;;;;;11.45;6.72;;;26.50;44.30;;;;;;5063259;28;20082;-49
2023/05/03 11:00:32;;;;;;;13.00;6.97;;;27.50;41.70;;;;;;5049977;28;20029;-51
2023/05/03 11:03:29;;;;;;;12.48;6.57;;;26.20;40.40;;;;;;5049820;28;20512;-44
2023/05/03 11:05:56;;;;;;;11.48;6.93;;;26.50;42.50;;;;;;5049985;28;20029;-47
2023/05/03 11:08:22;;;;;;;13.77;6.50;;;26.90;41.30;;;;;;5049886;28;20025;-54
2023/05/03 11:10:50;;;;;;;13.27;6.82;;;27.50;40.30;;;;;;5060993;28;20534;-48
2023/05/03 11:13:16;;;;;;;13.23;6.55;;;27.00;40.50;;;;;;5063599;28;20415;-45
2023/05/03 11:15:42;;;;;;;9.45;5.53;;;27.00;40.70;;;;;;5060677;28;20033;-51
2023/05/03 11:18:10;;;;;;;9.07;6.20;;;27.40;43.20;;;;;;5056640;28;20399;-52
2023/05/03 11:20:37;;;;;;;9.45;5.85;;;27.70;45.40;;;;;;5048673;28;20036;-55
2023/05/03 11:23:03;;;;;;;11.60;6.68;;;28.30;41.20;;;;;;5054435;28;20052;-51
2023/05/03 11:25:29;;;;;;;11.25;6.30;;;26.80;40.40;;;;;;5055733;28;20039;-52
2023/05/03 11:27:56;;;;;;;12.40;6.18;;;26.30;39.60;;;;;;5061502;28;20399;-43
2023/05/03 11:30:21;;;;;;;12.10;6.28;;;25.80;40.50;;;;;;5053334;28;20052;-46
2023/05/03 11:32:47;;;;;;;13.93;5.88;;;25.40;43.40;;;;;;5055855;28;20419;-53
2023/05/03 11:35:14;;;;;;;11.63;6.13;;;26.20;45.40;;;;;;5058601;28;20025;-43
2023/05/03 11:37:41;;;;;;;10.68;6.10;;;25.10;41.20;;;;;;5052959;28;20446;-50
2023/05/03 11:40:13;;;;;;;10.25;6.38;;;25.10;40.80;;;;;;5064600;28;20531;-50
2023/05/03 11:42:58;;;;;;;11.18;6.60;;;25.20;43.00;;;;;;5065437;28;20443;-42
2023/05/03 11:45:44;;;;;;;8.93;5.88;;;24.80;42.70;;;;;;5067239;28;20055;-48
2023/05/03 11:48:11;;;;;;;13.63;6.43;;;25.00;46.90;;;;;;5060407;28;20017;-46
2023/05/03 11:50:45;;;;;;;10.48;6.07;;;25.10;44.30;;;;;;5053050;28;20083;-54
2023/05/03 11:53:12;;;;;;;11.95;6.95;;;24.60;45.90;;;;;;5070436;28;20024;-44
2023/05/03 11:55:42;;;;;;;11.38;6.18;;;24.00;43.20;;;;;;5062216;28;20067;-47
2023/05/03 11:58:18;;;;;;;10.82;6.30;;;24.00;44.10;;;;;;5067682;28;20025;-42
2023/05/03 12:00:48;;;;;;;14.32;6.43;;;23.80;46.60;;;;;;5063420;28;20051;-55
2023/05/03 12:03:17;;;;;;;10.50;6.07;;;24.30;46.50;;;;;;5056079;28;20029;-48
2023/05/03 12:05:42;;;;;;;11.82;5.78;;;24.40;44.00;;;;;;5052685;28;20029;-53
2023/05/03 12:08:10;;;;;;;13.85;6.10;;;24.30;43.30;;;;;;5053742;28;20017;-45
2023/05/03 12:10:36;;;;;;;12.23;6.15;;;23.90;43.80;;;;;;5053439;28;20060;-48
2023/05/03 12:13:02;;;;;;;12.52;6.13;;;23.90;44.40;;;;;;5052732;28;20053;-51
2023/05/03 12:15:34;;;;;;;11.55;5.70;;;24.10;44.90;;;;;;5052419;28;20035;-45
2023/05/03 12:18:02;;;;;;;10.18;6.20;;;23.80;44.90;;;;;;5052944;28;20032;-51
2023/05/03 12:20:29;;;;;;;12.52;6.30;;;23.50;43.80;;;;;;5052579;28;20051;-43
2023/05/03 12:22:59;;;;;;;8.00;4.90;;;23.90;46.80;;;;;;5052441;28;20028;-45
2023/05/03 12:25:26;;;;;;;11.82;5.88;;;24.30;48.00;;;;;;5060924;28;20036;-44
2023/05/03 12:27:53;;;;;;;11.27;6.50;;;24.10;44.30;;;;;;5052340;28;20025;-58
2023/05/03 12:30:18;;;;;;;11.15;6.03;;;24.20;44.00;;;;;;5052615;28;20170;-47
2023/05/03 12:32:44;;;;;;;10.90;6.30;;;23.30;45.50;;;;;;5050924;28;20100;-53
2023/05/03 12:35:10;;;;;;;12.10;6.90;;;23.70;44.50;;;;;;5051197;28;20365;-45
2023/05/03 12:37:36;;;;;;;14.60;6.55;;;24.10;42.70;;;;;;5050152;28;20025;-52
2023/05/03 12:40:05;;;;;;;9.95;5.47;;;23.70;43.40;;;;;;5055461;28;20033;-53
2023/05/03 12:42:31;;;;;;;11.50;5.80;;;23.80;44.10;;;;;;5064438;28;20053;-49
2023/05/03 12:44:57;;;;;;;9.90;5.32;;;24.00;41.50;;;;;;5063396;28;20393;-49
2023/05/03 12:47:23;;;;;;;13.25;6.15;;;24.60;43.40;;;;;;5064764;28;20020;-43